sensor_id;sensor_type;location;lat;lon;timestamp;P1;durP1;ratioP1;P2;durP2;ratioP2
37141;SDS011;23041;49.816;20.092;2022-08-19T00:01:57;12.63;;;11.40;;
37141;SDS011;23041;49.816;20.092;2022-08-19T00:04:25;12.73;;;10.03;;
37141;SDS011;23041;49.816;20.092;2022-08-19T00:06:55;12.82;;;10.58;;
37141;SDS011;23041;49.816;20.092;2022-08-19T00:09:22;12.43;;;10.80;;
37141;SDS011;23041;49.816;20.092;2022-08-19T00:11:50;14.00;;;10.90;;
37141;SDS011;23041;49.816;20.092;2022-08-19T00:14:20;12.35;;;11.25;;
37141;SDS011;23041;49.816;20.092;2022-08-19T00:16:48;12.30;;;11.12;;
37141;SDS011;23041;49.816;20.092;2022-08-19T00:19:16;12.88;;;11.33;;
37141;SDS011;23041;49.816;20.092;2022-08-19T00:21:43;12.78;;;11.25;;
37141;SDS011;23041;49.816;20.092;2022-08-19T00:24:11;11.28;;;10.18;;
37141;SDS011;23041;49.816;20.092;2022-08-19T00:26:40;11.78;;;10.65;;
37141;SDS011;23041;49.816;20.092;2022-08-19T00:29:09;12.33;;;10.45;;
37141;SDS011;23041;49.816;20.092;2022-08-19T00:31:37;11.63;;;10.53;;
37141;SDS011;23041;49.816;20.092;2022-08-19T00:34:04;11.80;;;10.80;;
37141;SDS011;23041;49.816;20.092;2022-08-19T00:36:30;12.20;;;10.50;;
37141;SDS011;23041;49.816;20.092;2022-08-19T00:38:58;14.98;;;11.55;;
37141;SDS011;23041;49.816;20.092;2022-08-19T00:41:25;11.60;;;10.53;;
37141;SDS011;23041;49.816;20.092;2022-08-19T00:44:03;11.08;;;10.08;;
37141;SDS011;23041;49.816;20.092;2022-08-19T00:46:39;11.97;;;9.70;;
37141;SDS011;23041;49.816;20.092;2022-08-19T00:49:11;11.45;;;10.35;;
37141;SDS011;23041;49.816;20.092;2022-08-19T00:51:48;11.97;;;10.35;;
37141;SDS011;23041;49.816;20.092;2022-08-19T00:54:19;11.35;;;10.25;;
37141;SDS011;23041;49.816;20.092;2022-08-19T00:56:46;11.75;;;10.65;;
37141;SDS011;23041;49.816;20.092;2022-08-19T00:59:15;11.88;;;10.88;;
37141;SDS011;23041;49.816;20.092;2022-08-19T01:01:44;12.15;;;11.03;;
37141;SDS011;23041;49.816;20.092;2022-08-19T01:04:12;10.65;;;9.65;;
37141;SDS011;23041;49.816;20.092;2022-08-19T01:06:39;11.22;;;9.05;;
37141;SDS011;23041;49.816;20.092;2022-08-19T01:09:06;12.18;;;10.80;;
37141;SDS011;23041;49.816;20.092;2022-08-19T01:11:34;13.38;;;10.03;;
37141;SDS011;23041;49.816;20.092;2022-08-19T01:14:05;13.93;;;10.32;;
37141;SDS011;23041;49.816;20.092;2022-08-19T01:16:34;15.23;;;11.30;;
37141;SDS011;23041;49.816;20.092;2022-08-19T01:19:03;13.20;;;11.90;;
37141;SDS011;23041;49.816;20.092;2022-08-19T01:21:37;13.03;;;11.25;;
37141;SDS011;23041;49.816;20.092;2022-08-19T01:24:08;11.75;;;10.05;;
37141;SDS011;23041;49.816;20.092;2022-08-19T01:26:38;11.88;;;10.35;;
37141;SDS011;23041;49.816;20.092;2022-08-19T01:29:08;11.97;;;10.60;;
37141;SDS011;23041;49.816;20.092;2022-08-19T01:31:36;14.55;;;10.68;;
37141;SDS011;23041;49.816;20.092;2022-08-19T01:34:04;12.10;;;10.98;;
37141;SDS011;23041;49.816;20.092;2022-08-19T01:36:34;11.53;;;10.30;;
37141;SDS011;23041;49.816;20.092;2022-08-19T01:39:05;11.05;;;9.95;;
37141;SDS011;23041;49.816;20.092;2022-08-19T01:41:35;10.30;;;9.40;;
37141;SDS011;23041;49.816;20.092;2022-08-19T01:44:03;10.70;;;9.65;;
37141;SDS011;23041;49.816;20.092;2022-08-19T01:46:31;11.40;;;10.50;;
37141;SDS011;23041;49.816;20.092;2022-08-19T01:48:58;11.30;;;10.20;;
37141;SDS011;23041;49.816;20.092;2022-08-19T01:51:25;14.47;;;11.10;;
37141;SDS011;23041;49.816;20.092;2022-08-19T01:53:53;14.07;;;10.75;;
37141;SDS011;23041;49.816;20.092;2022-08-19T01:56:20;12.82;;;11.65;;
37141;SDS011;23041;49.816;20.092;2022-08-19T01:58:49;14.33;;;11.43;;
37141;SDS011;23041;49.816;20.092;2022-08-19T02:01:18;14.15;;;10.85;;
37141;SDS011;23041;49.816;20.092;2022-08-19T02:03:45;11.75;;;10.23;;
37141;SDS011;23041;49.816;20.092;2022-08-19T02:06:12;13.15;;;11.63;;
37141;SDS011;23041;49.816;20.092;2022-08-19T02:08:39;12.55;;;11.00;;
37141;SDS011;23041;49.816;20.092;2022-08-19T02:11:06;13.72;;;11.57;;
37141;SDS011;23041;49.816;20.092;2022-08-19T02:13:33;12.95;;;11.35;;
37141;SDS011;23041;49.816;20.092;2022-08-19T02:16:00;11.97;;;10.85;;
37141;SDS011;23041;49.816;20.092;2022-08-19T02:18:26;15.18;;;10.15;;
37141;SDS011;23041;49.816;20.092;2022-08-19T02:20:53;12.15;;;9.80;;
37141;SDS011;23041;49.816;20.092;2022-08-19T02:23:20;12.65;;;11.45;;
37141;SDS011;23041;49.816;20.092;2022-08-19T02:25:47;11.75;;;10.65;;
37141;SDS011;23041;49.816;20.092;2022-08-19T02:28:14;12.60;;;11.40;;
37141;SDS011;23041;49.816;20.092;2022-08-19T02:30:41;12.30;;;11.05;;
37141;SDS011;23041;49.816;20.092;2022-08-19T02:33:08;12.45;;;11.25;;
37141;SDS011;23041;49.816;20.092;2022-08-19T02:35:34;12.98;;;11.60;;
37141;SDS011;23041;49.816;20.092;2022-08-19T02:38:00;12.13;;;10.53;;
37141;SDS011;23041;49.816;20.092;2022-08-19T02:40:48;11.65;;;8.90;;
37141;SDS011;23041;49.816;20.092;2022-08-19T02:43:19;10.90;;;9.75;;
37141;SDS011;23041;49.816;20.092;2022-08-19T02:45:47;11.25;;;10.15;;
37141;SDS011;23041;49.816;20.092;2022-08-19T02:48:18;12.23;;;11.00;;
37141;SDS011;23041;49.816;20.092;2022-08-19T02:50:46;11.93;;;10.88;;
37141;SDS011;23041;49.816;20.092;2022-08-19T02:53:16;14.30;;;10.95;;
37141;SDS011;23041;49.816;20.092;2022-08-19T02:55:44;11.78;;;10.53;;
37141;SDS011;23041;49.816;20.092;2022-08-19T02:58:13;12.78;;;11.57;;
37141;SDS011;23041;49.816;20.092;2022-08-19T03:00:41;12.73;;;11.57;;
37141;SDS011;23041;49.816;20.092;2022-08-19T03:03:15;12.85;;;11.60;;
37141;SDS011;23041;49.816;20.092;2022-08-19T03:05:42;12.95;;;11.83;;
37141;SDS011;23041;49.816;20.092;2022-08-19T03:08:09;13.72;;;12.33;;
37141;SDS011;23041;49.816;20.092;2022-08-19T03:10:46;12.43;;;11.05;;
37141;SDS011;23041;49.816;20.092;2022-08-19T03:13:12;13.30;;;11.95;;
37141;SDS011;23041;49.816;20.092;2022-08-19T03:18:10;10.88;;;9.78;;
37141;SDS011;23041;49.816;20.092;2022-08-19T03:20:41;15.78;;;11.78;;
37141;SDS011;23041;49.816;20.092;2022-08-19T03:23:11;13.40;;;10.75;;
37141;SDS011;23041;49.816;20.092;2022-08-19T03:25:39;12.25;;;11.25;;
37141;SDS011;23041;49.816;20.092;2022-08-19T03:28:09;13.53;;;12.33;;
37141;SDS011;23041;49.816;20.092;2022-08-19T03:30:40;12.50;;;11.50;;
37141;SDS011;23041;49.816;20.092;2022-08-19T03:33:09;12.73;;;11.63;;
37141;SDS011;23041;49.816;20.092;2022-08-19T03:35:42;12.03;;;10.93;;
37141;SDS011;23041;49.816;20.092;2022-08-19T03:38:10;11.18;;;10.08;;
37141;SDS011;23041;49.816;20.092;2022-08-19T03:40:36;11.95;;;10.75;;
37141;SDS011;23041;49.816;20.092;2022-08-19T03:43:03;12.43;;;11.30;;
37141;SDS011;23041;49.816;20.092;2022-08-19T03:45:30;12.33;;;11.28;;
37141;SDS011;23041;49.816;20.092;2022-08-19T03:47:57;13.18;;;11.00;;
37141;SDS011;23041;49.816;20.092;2022-08-19T03:50:24;11.90;;;10.72;;
37141;SDS011;23041;49.816;20.092;2022-08-19T03:52:50;11.25;;;10.25;;
37141;SDS011;23041;49.816;20.092;2022-08-19T03:55:18;11.85;;;10.75;;
37141;SDS011;23041;49.816;20.092;2022-08-19T03:57:46;12.90;;;11.73;;
37141;SDS011;23041;49.816;20.092;2022-08-19T04:00:14;15.72;;;12.93;;
37141;SDS011;23041;49.816;20.092;2022-08-19T04:02:41;13.50;;;12.35;;
37141;SDS011;23041;49.816;20.092;2022-08-19T04:05:08;16.48;;;12.95;;
37141;SDS011;23041;49.816;20.092;2022-08-19T04:07:35;13.40;;;12.10;;
37141;SDS011;23041;49.816;20.092;2022-08-19T04:10:02;11.80;;;10.88;;
37141;SDS011;23041;49.816;20.092;2022-08-19T04:12:30;11.28;;;10.28;;
37141;SDS011;23041;49.816;20.092;2022-08-19T04:14:57;14.18;;;12.47;;
37141;SDS011;23041;49.816;20.092;2022-08-19T04:17:24;13.45;;;12.07;;
37141;SDS011;23041;49.816;20.092;2022-08-19T04:19:52;13.48;;;12.37;;
37141;SDS011;23041;49.816;20.092;2022-08-19T04:22:18;12.82;;;11.33;;
37141;SDS011;23041;49.816;20.092;2022-08-19T04:24:44;12.95;;;11.75;;
37141;SDS011;23041;49.816;20.092;2022-08-19T04:27:10;12.55;;;11.35;;
37141;SDS011;23041;49.816;20.092;2022-08-19T04:29:37;11.10;;;9.95;;
37141;SDS011;23041;49.816;20.092;2022-08-19T04:32:05;12.58;;;10.88;;
37141;SDS011;23041;49.816;20.092;2022-08-19T04:34:31;14.23;;;12.50;;
37141;SDS011;23041;49.816;20.092;2022-08-19T04:36:58;12.28;;;11.25;;
37141;SDS011;23041;49.816;20.092;2022-08-19T04:39:29;12.50;;;11.30;;
37141;SDS011;23041;49.816;20.092;2022-08-19T04:42:13;12.93;;;10.63;;
37141;SDS011;23041;49.816;20.092;2022-08-19T04:45:00;12.75;;;10.28;;
37141;SDS011;23041;49.816;20.092;2022-08-19T04:47:28;10.98;;;9.90;;
37141;SDS011;23041;49.816;20.092;2022-08-19T04:49:55;13.05;;;10.85;;
37141;SDS011;23041;49.816;20.092;2022-08-19T04:52:21;13.78;;;11.85;;
37141;SDS011;23041;49.816;20.092;2022-08-19T04:54:48;12.68;;;11.53;;
37141;SDS011;23041;49.816;20.092;2022-08-19T04:57:14;12.58;;;11.40;;
37141;SDS011;23041;49.816;20.092;2022-08-19T04:59:40;11.93;;;10.93;;
37141;SDS011;23041;49.816;20.092;2022-08-19T05:02:07;11.90;;;10.78;;
37141;SDS011;23041;49.816;20.092;2022-08-19T05:04:35;11.85;;;10.70;;
37141;SDS011;23041;49.816;20.092;2022-08-19T05:07:04;11.55;;;10.60;;
37141;SDS011;23041;49.816;20.092;2022-08-19T05:09:31;12.78;;;11.68;;
37141;SDS011;23041;49.816;20.092;2022-08-19T05:11:58;13.55;;;12.37;;
37141;SDS011;23041;49.816;20.092;2022-08-19T05:14:25;16.75;;;12.47;;
37141;SDS011;23041;49.816;20.092;2022-08-19T05:16:51;13.93;;;12.37;;
37141;SDS011;23041;49.816;20.092;2022-08-19T05:19:19;11.85;;;10.85;;
37141;SDS011;23041;49.816;20.092;2022-08-19T05:22:04;11.57;;;10.40;;
37141;SDS011;23041;49.816;20.092;2022-08-19T05:24:49;12.07;;;10.98;;
37141;SDS011;23041;49.816;20.092;2022-08-19T05:27:15;12.28;;;11.25;;
37141;SDS011;23041;49.816;20.092;2022-08-19T05:29:42;11.25;;;10.25;;
37141;SDS011;23041;49.816;20.092;2022-08-19T05:32:08;13.75;;;10.63;;
37141;SDS011;23041;49.816;20.092;2022-08-19T05:34:36;12.18;;;10.98;;
37141;SDS011;23041;49.816;20.092;2022-08-19T05:37:04;12.90;;;11.55;;
37141;SDS011;23041;49.816;20.092;2022-08-19T05:39:31;12.78;;;11.48;;
37141;SDS011;23041;49.816;20.092;2022-08-19T05:42:03;13.13;;;11.78;;
37141;SDS011;23041;49.816;20.092;2022-08-19T05:44:33;12.75;;;11.57;;
37141;SDS011;23041;49.816;20.092;2022-08-19T05:47:04;14.18;;;12.10;;
37141;SDS011;23041;49.816;20.092;2022-08-19T05:49:32;12.18;;;11.10;;
37141;SDS011;23041;49.816;20.092;2022-08-19T05:52:01;14.18;;;12.78;;
37141;SDS011;23041;49.816;20.092;2022-08-19T05:54:30;13.45;;;11.73;;
37141;SDS011;23041;49.816;20.092;2022-08-19T05:56:58;13.90;;;12.40;;
37141;SDS011;23041;49.816;20.092;2022-08-19T05:59:26;12.50;;;11.50;;
37141;SDS011;23041;49.816;20.092;2022-08-19T06:01:53;13.83;;;12.07;;
37141;SDS011;23041;49.816;20.092;2022-08-19T06:04:23;12.30;;;11.12;;
37141;SDS011;23041;49.816;20.092;2022-08-19T06:06:50;12.15;;;11.20;;
37141;SDS011;23041;49.816;20.092;2022-08-19T06:11:47;12.03;;;11.03;;
37141;SDS011;23041;49.816;20.092;2022-08-19T06:14:21;11.57;;;10.58;;
37141;SDS011;23041;49.816;20.092;2022-08-19T06:16:50;12.60;;;11.40;;
37141;SDS011;23041;49.816;20.092;2022-08-19T06:19:18;11.95;;;10.95;;
37141;SDS011;23041;49.816;20.092;2022-08-19T06:21:46;11.25;;;10.35;;
37141;SDS011;23041;49.816;20.092;2022-08-19T06:24:17;12.03;;;10.30;;
37141;SDS011;23041;49.816;20.092;2022-08-19T06:26:48;11.18;;;10.15;;
37141;SDS011;23041;49.816;20.092;2022-08-19T06:31:46;11.97;;;10.90;;
37141;SDS011;23041;49.816;20.092;2022-08-19T06:34:16;10.20;;;9.30;;
37141;SDS011;23041;49.816;20.092;2022-08-19T06:36:45;11.40;;;10.40;;
37141;SDS011;23041;49.816;20.092;2022-08-19T06:39:15;10.78;;;9.50;;
37141;SDS011;23041;49.816;20.092;2022-08-19T06:41:46;9.70;;;8.90;;
37141;SDS011;23041;49.816;20.092;2022-08-19T06:44:16;12.65;;;9.28;;
37141;SDS011;23041;49.816;20.092;2022-08-19T06:46:48;9.80;;;8.80;;
37141;SDS011;23041;49.816;20.092;2022-08-19T06:49:15;10.40;;;9.38;;
37141;SDS011;23041;49.816;20.092;2022-08-19T06:54:12;9.25;;;8.28;;
37141;SDS011;23041;49.816;20.092;2022-08-19T06:56:40;11.20;;;8.23;;
37141;SDS011;23041;49.816;20.092;2022-08-19T06:59:10;8.68;;;8.05;;
37141;SDS011;23041;49.816;20.092;2022-08-19T07:01:44;9.33;;;8.40;;
37141;SDS011;23041;49.816;20.092;2022-08-19T07:04:15;8.48;;;7.80;;
37141;SDS011;23041;49.816;20.092;2022-08-19T07:06:45;9.38;;;8.50;;
37141;SDS011;23041;49.816;20.092;2022-08-19T07:09:13;8.05;;;7.35;;
37141;SDS011;23041;49.816;20.092;2022-08-19T07:11:46;13.78;;;7.35;;
37141;SDS011;23041;49.816;20.092;2022-08-19T07:14:15;8.58;;;7.87;;
37141;SDS011;23041;49.816;20.092;2022-08-19T07:16:44;8.30;;;7.60;;
37141;SDS011;23041;49.816;20.092;2022-08-19T07:19:15;8.20;;;7.47;;
37141;SDS011;23041;49.816;20.092;2022-08-19T07:21:43;7.22;;;6.72;;
37141;SDS011;23041;49.816;20.092;2022-08-19T07:24:09;7.97;;;7.17;;
37141;SDS011;23041;49.816;20.092;2022-08-19T07:29:08;6.95;;;6.45;;
37141;SDS011;23041;49.816;20.092;2022-08-19T07:31:35;7.90;;;7.17;;
37141;SDS011;23041;49.816;20.092;2022-08-19T07:34:03;8.08;;;7.28;;
37141;SDS011;23041;49.816;20.092;2022-08-19T07:36:34;7.37;;;6.78;;
37141;SDS011;23041;49.816;20.092;2022-08-19T07:39:05;7.65;;;6.95;;
37141;SDS011;23041;49.816;20.092;2022-08-19T07:41:34;8.00;;;7.37;;
37141;SDS011;23041;49.816;20.092;2022-08-19T07:44:02;8.38;;;6.87;;
37141;SDS011;23041;49.816;20.092;2022-08-19T07:46:31;7.08;;;6.47;;
37141;SDS011;23041;49.816;20.092;2022-08-19T07:48:59;7.55;;;6.75;;
37141;SDS011;23041;49.816;20.092;2022-08-19T07:53:52;8.05;;;6.95;;
37141;SDS011;23041;49.816;20.092;2022-08-19T07:56:20;7.53;;;6.90;;
37141;SDS011;23041;49.816;20.092;2022-08-19T07:58:48;7.80;;;7.20;;
37141;SDS011;23041;49.816;20.092;2022-08-19T08:01:23;7.78;;;7.08;;
37141;SDS011;23041;49.816;20.092;2022-08-19T08:03:48;8.00;;;7.40;;
37141;SDS011;23041;49.816;20.092;2022-08-19T08:06:35;8.50;;;7.20;;
37141;SDS011;23041;49.816;20.092;2022-08-19T08:09:26;9.90;;;7.08;;
37141;SDS011;23041;49.816;20.092;2022-08-19T08:11:53;7.70;;;7.12;;
37141;SDS011;23041;49.816;20.092;2022-08-19T08:14:28;7.92;;;7.33;;
37141;SDS011;23041;49.816;20.092;2022-08-19T08:16:58;7.15;;;6.60;;
37141;SDS011;23041;49.816;20.092;2022-08-19T08:19:25;7.37;;;6.87;;
37141;SDS011;23041;49.816;20.092;2022-08-19T08:21:53;9.28;;;7.60;;
37141;SDS011;23041;49.816;20.092;2022-08-19T08:24:23;9.03;;;8.15;;
37141;SDS011;23041;49.816;20.092;2022-08-19T08:26:51;7.65;;;7.15;;
37141;SDS011;23041;49.816;20.092;2022-08-19T08:29:18;8.73;;;6.97;;
37141;SDS011;23041;49.816;20.092;2022-08-19T08:31:45;7.80;;;7.20;;
37141;SDS011;23041;49.816;20.092;2022-08-19T08:34:13;10.45;;;7.30;;
37141;SDS011;23041;49.816;20.092;2022-08-19T08:36:41;8.50;;;7.75;;
37141;SDS011;23041;49.816;20.092;2022-08-19T08:39:12;8.83;;;8.23;;
37141;SDS011;23041;49.816;20.092;2022-08-19T08:47:12;8.13;;;7.28;;
37141;SDS011;23041;49.816;20.092;2022-08-19T08:52:26;8.60;;;7.75;;
37141;SDS011;23041;49.816;20.092;2022-08-19T08:55:11;8.25;;;7.75;;
37141;SDS011;23041;49.816;20.092;2022-08-19T09:00:32;9.00;;;8.30;;
37141;SDS011;23041;49.816;20.092;2022-08-19T09:03:09;8.83;;;8.20;;
37141;SDS011;23041;49.816;20.092;2022-08-19T09:08:47;8.88;;;8.28;;
37141;SDS011;23041;49.816;20.092;2022-08-19T09:14:33;9.20;;;8.60;;
37141;SDS011;23041;49.816;20.092;2022-08-19T09:17:05;9.58;;;8.70;;
37141;SDS011;23041;49.816;20.092;2022-08-19T09:19:34;10.45;;;9.50;;
37141;SDS011;23041;49.816;20.092;2022-08-19T09:22:22;9.75;;;8.93;;
37141;SDS011;23041;49.816;20.092;2022-08-19T09:24:50;10.28;;;9.48;;
37141;SDS011;23041;49.816;20.092;2022-08-19T09:27:18;10.82;;;9.80;;
37141;SDS011;23041;49.816;20.092;2022-08-19T09:29:46;11.38;;;10.58;;
37141;SDS011;23041;49.816;20.092;2022-08-19T09:32:16;11.43;;;10.63;;
37141;SDS011;23041;49.816;20.092;2022-08-19T09:34:43;11.18;;;10.38;;
37141;SDS011;23041;49.816;20.092;2022-08-19T09:37:10;12.55;;;11.73;;
37141;SDS011;23041;49.816;20.092;2022-08-19T09:39:37;12.37;;;11.40;;
37141;SDS011;23041;49.816;20.092;2022-08-19T09:42:06;13.10;;;12.20;;
37141;SDS011;23041;49.816;20.092;2022-08-19T09:44:38;14.23;;;13.28;;
37141;SDS011;23041;49.816;20.092;2022-08-19T09:47:07;13.62;;;12.80;;
37141;SDS011;23041;49.816;20.092;2022-08-19T09:49:35;13.50;;;12.43;;
37141;SDS011;23041;49.816;20.092;2022-08-19T09:52:03;16.07;;;14.78;;
37141;SDS011;23041;49.816;20.092;2022-08-19T09:54:29;13.55;;;12.85;;
37141;SDS011;23041;49.816;20.092;2022-08-19T09:56:57;15.50;;;14.60;;
37141;SDS011;23041;49.816;20.092;2022-08-19T09:59:27;14.35;;;13.45;;
37141;SDS011;23041;49.816;20.092;2022-08-19T10:01:54;15.03;;;14.03;;
37141;SDS011;23041;49.816;20.092;2022-08-19T10:04:21;15.48;;;14.45;;
37141;SDS011;23041;49.816;20.092;2022-08-19T10:06:49;15.10;;;14.30;;
37141;SDS011;23041;49.816;20.092;2022-08-19T10:09:17;15.98;;;14.65;;
37141;SDS011;23041;49.816;20.092;2022-08-19T10:11:44;16.15;;;15.10;;
37141;SDS011;23041;49.816;20.092;2022-08-19T10:14:15;17.60;;;15.93;;
37141;SDS011;23041;49.816;20.092;2022-08-19T10:16:42;15.40;;;14.43;;
37141;SDS011;23041;49.816;20.092;2022-08-19T10:19:09;15.23;;;13.90;;
37141;SDS011;23041;49.816;20.092;2022-08-19T10:21:35;15.18;;;14.38;;
37141;SDS011;23041;49.816;20.092;2022-08-19T10:24:03;13.25;;;12.55;;
37141;SDS011;23041;49.816;20.092;2022-08-19T10:26:33;13.70;;;12.90;;
37141;SDS011;23041;49.816;20.092;2022-08-19T10:29:03;13.30;;;12.53;;
37141;SDS011;23041;49.816;20.092;2022-08-19T10:31:32;12.35;;;11.65;;
37141;SDS011;23041;49.816;20.092;2022-08-19T10:34:00;13.08;;;12.28;;
37141;SDS011;23041;49.816;20.092;2022-08-19T10:36:29;14.07;;;12.90;;
37141;SDS011;23041;49.816;20.092;2022-08-19T10:38:59;12.73;;;11.93;;
37141;SDS011;23041;49.816;20.092;2022-08-19T10:41:30;16.55;;;15.25;;
37141;SDS011;23041;49.816;20.092;2022-08-19T10:46:41;14.38;;;13.38;;
37141;SDS011;23041;49.816;20.092;2022-08-19T10:49:10;13.70;;;12.75;;
37141;SDS011;23041;49.816;20.092;2022-08-19T10:51:38;13.83;;;12.60;;
37141;SDS011;23041;49.816;20.092;2022-08-19T10:54:23;13.30;;;12.13;;
37141;SDS011;23041;49.816;20.092;2022-08-19T10:56:52;14.87;;;13.98;;
37141;SDS011;23041;49.816;20.092;2022-08-19T10:59:23;15.85;;;14.63;;
37141;SDS011;23041;49.816;20.092;2022-08-19T11:01:59;13.93;;;13.03;;
37141;SDS011;23041;49.816;20.092;2022-08-19T11:04:27;13.55;;;12.63;;
37141;SDS011;23041;49.816;20.092;2022-08-19T11:06:53;13.70;;;12.68;;
37141;SDS011;23041;49.816;20.092;2022-08-19T11:09:22;12.70;;;11.73;;
37141;SDS011;23041;49.816;20.092;2022-08-19T11:11:51;12.43;;;11.63;;
37141;SDS011;23041;49.816;20.092;2022-08-19T11:14:19;11.95;;;10.82;;
37141;SDS011;23041;49.816;20.092;2022-08-19T11:16:46;10.68;;;10.00;;
37141;SDS011;23041;49.816;20.092;2022-08-19T11:19:14;11.15;;;10.55;;
37141;SDS011;23041;49.816;20.092;2022-08-19T11:21:45;11.88;;;10.98;;
37141;SDS011;23041;49.816;20.092;2022-08-19T11:24:15;10.20;;;9.60;;
37141;SDS011;23041;49.816;20.092;2022-08-19T11:26:47;9.75;;;9.15;;
37141;SDS011;23041;49.816;20.092;2022-08-19T11:29:16;9.98;;;9.18;;
37141;SDS011;23041;49.816;20.092;2022-08-19T11:31:47;9.58;;;8.98;;
37141;SDS011;23041;49.816;20.092;2022-08-19T11:34:17;9.80;;;8.95;;
37141;SDS011;23041;49.816;20.092;2022-08-19T11:36:46;7.50;;;7.00;;
37141;SDS011;23041;49.816;20.092;2022-08-19T11:39:14;7.28;;;6.78;;
37141;SDS011;23041;49.816;20.092;2022-08-19T11:41:44;7.22;;;6.70;;
37141;SDS011;23041;49.816;20.092;2022-08-19T11:44:11;9.20;;;8.13;;
37141;SDS011;23041;49.816;20.092;2022-08-19T11:46:39;7.65;;;6.85;;
37141;SDS011;23041;49.816;20.092;2022-08-19T11:49:12;8.43;;;7.45;;
37141;SDS011;23041;49.816;20.092;2022-08-19T11:51:42;9.03;;;7.30;;
37141;SDS011;23041;49.816;20.092;2022-08-19T11:54:09;8.15;;;7.45;;
37141;SDS011;23041;49.816;20.092;2022-08-19T11:56:37;7.90;;;7.30;;
37141;SDS011;23041;49.816;20.092;2022-08-19T11:59:04;8.45;;;7.75;;
37141;SDS011;23041;49.816;20.092;2022-08-19T12:01:31;9.75;;;8.48;;
37141;SDS011;23041;49.816;20.092;2022-08-19T12:03:58;9.45;;;8.55;;
37141;SDS011;23041;49.816;20.092;2022-08-19T12:06:27;12.43;;;8.48;;
37141;SDS011;23041;49.816;20.092;2022-08-19T12:08:59;8.90;;;8.03;;
37141;SDS011;23041;49.816;20.092;2022-08-19T12:11:29;9.23;;;8.35;;
37141;SDS011;23041;49.816;20.092;2022-08-19T12:13:56;9.38;;;8.60;;
37141;SDS011;23041;49.816;20.092;2022-08-19T12:16:24;9.23;;;8.40;;
37141;SDS011;23041;49.816;20.092;2022-08-19T12:18:52;9.05;;;8.25;;
37141;SDS011;23041;49.816;20.092;2022-08-19T12:21:22;8.70;;;7.90;;
37141;SDS011;23041;49.816;20.092;2022-08-19T12:23:54;8.70;;;8.10;;
37141;SDS011;23041;49.816;20.092;2022-08-19T12:26:24;8.80;;;8.20;;
37141;SDS011;23041;49.816;20.092;2022-08-19T12:28:52;9.30;;;8.60;;
37141;SDS011;23041;49.816;20.092;2022-08-19T12:31:19;9.48;;;8.53;;
37141;SDS011;23041;49.816;20.092;2022-08-19T12:33:46;12.80;;;8.68;;
37141;SDS011;23041;49.816;20.092;2022-08-19T12:36:13;9.75;;;8.70;;
37141;SDS011;23041;49.816;20.092;2022-08-19T12:38:42;10.50;;;7.70;;
37141;SDS011;23041;49.816;20.092;2022-08-19T12:41:10;9.03;;;8.20;;
37141;SDS011;23041;49.816;20.092;2022-08-19T12:43:41;10.05;;;8.08;;
37141;SDS011;23041;49.816;20.092;2022-08-19T12:46:08;9.63;;;8.33;;
37141;SDS011;23041;49.816;20.092;2022-08-19T12:48:35;8.83;;;8.03;;
37141;SDS011;23041;49.816;20.092;2022-08-19T12:51:06;10.70;;;8.40;;
37141;SDS011;23041;49.816;20.092;2022-08-19T12:53:36;8.65;;;8.03;;
37141;SDS011;23041;49.816;20.092;2022-08-19T12:56:03;9.23;;;7.78;;
37141;SDS011;23041;49.816;20.092;2022-08-19T12:58:30;11.08;;;8.33;;
37141;SDS011;23041;49.816;20.092;2022-08-19T13:00:59;9.80;;;8.13;;
37141;SDS011;23041;49.816;20.092;2022-08-19T13:03:27;9.98;;;7.85;;
37141;SDS011;23041;49.816;20.092;2022-08-19T13:05:55;8.30;;;7.50;;
37141;SDS011;23041;49.816;20.092;2022-08-19T13:08:22;8.83;;;8.08;;
37141;SDS011;23041;49.816;20.092;2022-08-19T13:10:49;8.60;;;7.72;;
37141;SDS011;23041;49.816;20.092;2022-08-19T13:13:16;10.75;;;8.40;;
37141;SDS011;23041;49.816;20.092;2022-08-19T13:15:42;7.72;;;7.20;;
37141;SDS011;23041;49.816;20.092;2022-08-19T13:18:10;7.65;;;6.95;;
37141;SDS011;23041;49.816;20.092;2022-08-19T13:20:39;8.58;;;7.92;;
37141;SDS011;23041;49.816;20.092;2022-08-19T13:23:07;8.20;;;7.50;;
37141;SDS011;23041;49.816;20.092;2022-08-19T13:28:01;9.33;;;7.85;;
37141;SDS011;23041;49.816;20.092;2022-08-19T13:30:29;8.13;;;7.53;;
37141;SDS011;23041;49.816;20.092;2022-08-19T13:33:15;9.68;;;7.83;;
37141;SDS011;23041;49.816;20.092;2022-08-19T13:35:58;8.23;;;7.40;;
37141;SDS011;23041;49.816;20.092;2022-08-19T13:38:26;7.40;;;6.70;;
37141;SDS011;23041;49.816;20.092;2022-08-19T13:40:54;9.03;;;7.03;;
37141;SDS011;23041;49.816;20.092;2022-08-19T13:43:22;8.03;;;7.37;;
37141;SDS011;23041;49.816;20.092;2022-08-19T13:45:52;7.80;;;7.25;;
37141;SDS011;23041;49.816;20.092;2022-08-19T13:48:21;7.65;;;7.10;;
37141;SDS011;23041;49.816;20.092;2022-08-19T13:50:50;6.95;;;6.53;;
37141;SDS011;23041;49.816;20.092;2022-08-19T13:53:17;7.53;;;7.03;;
37141;SDS011;23041;49.816;20.092;2022-08-19T13:55:44;8.30;;;7.45;;
37141;SDS011;23041;49.816;20.092;2022-08-19T13:58:10;8.58;;;7.53;;
37141;SDS011;23041;49.816;20.092;2022-08-19T14:00:39;8.45;;;7.25;;
37141;SDS011;23041;49.816;20.092;2022-08-19T14:03:09;7.95;;;7.15;;
37141;SDS011;23041;49.816;20.092;2022-08-19T14:05:36;7.72;;;7.12;;
37141;SDS011;23041;49.816;20.092;2022-08-19T14:08:03;7.90;;;7.10;;
37141;SDS011;23041;49.816;20.092;2022-08-19T14:10:30;8.40;;;7.80;;
37141;SDS011;23041;49.816;20.092;2022-08-19T14:12:58;8.57;;;7.87;;
37141;SDS011;23041;49.816;20.092;2022-08-19T14:15:27;8.78;;;7.90;;
37141;SDS011;23041;49.816;20.092;2022-08-19T14:17:54;8.00;;;7.30;;
37141;SDS011;23041;49.816;20.092;2022-08-19T14:20:21;9.30;;;8.13;;
37141;SDS011;23041;49.816;20.092;2022-08-19T14:22:48;8.40;;;7.57;;
37141;SDS011;23041;49.816;20.092;2022-08-19T14:25:17;8.10;;;7.40;;
37141;SDS011;23041;49.816;20.092;2022-08-19T14:27:47;11.70;;;7.60;;
37141;SDS011;23041;49.816;20.092;2022-08-19T14:30:16;7.87;;;7.17;;
37141;SDS011;23041;49.816;20.092;2022-08-19T14:32:50;9.83;;;8.15;;
37141;SDS011;23041;49.816;20.092;2022-08-19T14:35:16;8.25;;;7.60;;
37141;SDS011;23041;49.816;20.092;2022-08-19T14:37:44;8.50;;;7.70;;
37141;SDS011;23041;49.816;20.092;2022-08-19T14:40:11;11.03;;;7.53;;
37141;SDS011;23041;49.816;20.092;2022-08-19T14:42:43;10.48;;;8.58;;
37141;SDS011;23041;49.816;20.092;2022-08-19T14:45:10;8.40;;;7.70;;
37141;SDS011;23041;49.816;20.092;2022-08-19T14:47:37;8.80;;;8.00;;
37141;SDS011;23041;49.816;20.092;2022-08-19T14:50:09;9.85;;;8.73;;
37141;SDS011;23041;49.816;20.092;2022-08-19T14:52:37;9.13;;;8.40;;
37141;SDS011;23041;49.816;20.092;2022-08-19T14:57:32;8.90;;;8.10;;
37141;SDS011;23041;49.816;20.092;2022-08-19T14:59:58;9.08;;;8.25;;
37141;SDS011;23041;49.816;20.092;2022-08-19T15:02:25;9.50;;;8.70;;
37141;SDS011;23041;49.816;20.092;2022-08-19T15:04:52;10.78;;;9.78;;
37141;SDS011;23041;49.816;20.092;2022-08-19T15:07:20;10.65;;;9.65;;
37141;SDS011;23041;49.816;20.092;2022-08-19T15:09:48;11.03;;;9.53;;